OOCL Asia — VRBQ6 — position and weather

sailwx.info

Track history (hours):
 
Tides and Currents Weather Stations Pressure Air Temp Water Temp Dewpoint Dewpoint Depression Visibility Wind Speed Wind Dir Waves Ship Positions

OOCL Asia

Last reported at 2018-Jul-18 06:00 UTC. Time now 2018-Jul-18 23:53 UTC.
Position N 49°42' W 019°12'.

Length 323 m; beam 42.8 m; draft 14.5 m.

Type: Cargo ship. MMSI: 477105600.

Wind from 010 at 8 knots

Barometer 1020.0 mb
Air temperature 11.0 ° C
Visibility: greater than 0.3 NM
Dewpoint 7.2 ° C
Water temperature 8.0 ° C

Date/timePositionNaut miles runAvg speedWind from/ knotsBaromVisibWave heightAir tempDewpointWater temp
2018-Jul-18 06:00N 49°42' W 019°12'25914.4 010 / 81020.0 0.3 11.0 7.2 8.0
2018-Jul-17 12:00N 49°12' W 025°48'10817.9 210 / 131017.0 0.3 20.016.9-17.4
2018-Jul-17 06:00N 48°54' W 028°30'38916.2 280 / 91017.5 0.5 18.014.814.0
2018-Jul-16 06:00N 47°18' W 037°54'36120.1 1026.0 5.4 18.014.814.0
2018-Jul-15 12:00N 45°06' W 046°00'24220.1 240 / 161027.0 0.0 16.515.714.9
2018-Jul-15 00:00N 43°24' W 051°06'23019.1 120 / 81022.0 0.5 19.017.516.8
2018-Jul-14 12:00N 41°30' W 055°36'61120.4 230 / 211025.010.8 26.021.828.7
2018-Jul-13 06:00N 36°00' W 066°36'17214.3 240 / 191020.510.8 22.019.0
2018-Jul-12 18:00N 34°24' W 069°30'20312.4 240 / 81020.510.8 27.521.127.5
2018-Jul-12 01:36N 32°44' W 073°03'1 8.3
2018-Jul-12 01:30N 32°44' W 073°04'4 8.4
2018-Jul-12 01:00N 32°44' W 073°08'4 8.4
2018-Jul-12 00:30N 32°43' W 073°13'332 9.6
2018-Jul-10 13:45N 32°43' W 079°49'415.9
2018-Jul-10 13:30N 32°46' W 079°52'4 8.1
2018-Jul-10 13:00N 32°49' W 079°54'1 2.3
2018-Jul-10 12:29N 32°50' W 079°53'0 0.1
2018-Jul-10 11:55N 32°50' W 079°53'0 0.0
2018-Jul-10 11:28N 32°50' W 079°53'0 0.0
2018-Jul-10 10:59N 32°50' W 079°53'0 0.0
2018-Jul-10 10:29N 32°50' W 079°53'0 0.0
2018-Jul-10 09:59N 32°50' W 079°53'0 0.0
2018-Jul-10 09:26N 32°50' W 079°53'0 0.0
2018-Jul-10 08:53N 32°50' W 079°53'0 0.0
2018-Jul-10 08:17N 32°50' W 079°53'0 0.0
2018-Jul-10 07:56N 32°50' W 079°53'0 0.0
2018-Jul-10 07:20N 32°50' W 079°53'0 0.0
2018-Jul-10 06:56N 32°50' W 079°53'0 0.0
2018-Jul-10 06:26N 32°50' W 079°53'0 0.0
2018-Jul-10 05:32N 32°50' W 079°53'0 0.0
2018-Jul-10 05:29N 32°50' W 079°53'0 0.0
2018-Jul-10 04:59N 32°50' W 079°53'0 0.0
2018-Jul-10 04:20N 32°50' W 079°53'0 0.0
2018-Jul-10 03:56N 32°50' W 079°53'0 0.0
2018-Jul-10 03:26N 32°50' W 079°53'0 0.0
2018-Jul-10 02:50N 32°50' W 079°53'0 0.0
2018-Jul-10 02:29N 32°50' W 079°53'0 0.0
2018-Jul-10 00:53N 32°50' W 079°53'0 0.0
2018-Jul-10 00:20N 32°50' W 079°53'0 0.0
2018-Jul-09 23:56N 32°50' W 079°53'0 0.0
2018-Jul-09 21:02N 32°50' W 079°53'0 0.0
2018-Jul-09 20:53N 32°50' W 079°53'0 0.0
2018-Jul-09 19:59N 32°50' W 079°53'0 0.0
2018-Jul-09 18:30N 32°50' W 079°53'0 0.0
2018-Jul-09 15:11N 32°50' W 079°53'1 3.4
2018-Jul-09 14:59N 32°50' W 079°54'3 6.5
2018-Jul-09 14:30N 32°47' W 079°54'611.4
2018-Jul-09 14:01N 32°43' W 079°48'5912.3
2018-Jul-09 09:11N 31°57' W 080°32'319.5
2018-Jul-09 09:00N 31°57' W 080°36'815.1
2018-Jul-09 08:30N 31°59' W 080°45'713.5
2018-Jul-09 08:00N 32°02' W 080°51'4 9.0
2018-Jul-09 07:31N 32°03' W 080°56'5 9.1
2018-Jul-09 07:00N 32°06' W 081°01'3 6.6
2018-Jul-09 06:29N 32°05' W 081°05'3 6.4
2018-Jul-09 06:00N 32°07' W 081°08'1 3.0
2018-Jul-09 05:30N 32°08' W 081°09'0 0.0
2018-Jul-09 04:58N 32°08' W 081°09'0 0.0
2018-Jul-09 04:28N 32°08' W 081°09'0 0.0
2018-Jul-09 03:58N 32°08' W 081°09'0 0.0
2018-Jul-09 03:28N 32°08' W 081°09'0 0.0
2018-Jul-09 02:58N 32°08' W 081°09'0 0.0
2018-Jul-09 02:28N 32°08' W 081°09'0 0.0
2018-Jul-09 01:58N 32°08' W 081°09'0 0.0
2018-Jul-09 01:29N 32°08' W 081°09'0 0.0
2018-Jul-09 01:00N 32°08' W 081°09'0 0.0
2018-Jul-09 00:30N 32°08' W 081°09'0 0.0
2018-Jul-09 00:00N 32°08' W 081°09'0 0.0
2018-Jul-08 23:30N 32°08' W 081°09'0 0.0
2018-Jul-08 23:00N 32°08' W 081°09'0 0.0
2018-Jul-08 22:30N 32°08' W 081°09'0 0.0
2018-Jul-08 21:54N 32°08' W 081°09'0 0.0
2018-Jul-08 21:24N 32°08' W 081°09'0 0.0
2018-Jul-08 21:00N 32°08' W 081°09'0 0.0
2018-Jul-08 20:30N 32°08' W 081°09'0 0.0
2018-Jul-08 20:00N 32°08' W 081°09'0 0.0
2018-Jul-08 19:30N 32°08' W 081°09'0 0.0
2018-Jul-08 19:00N 32°08' W 081°09'0 0.0
2018-Jul-08 18:30N 32°08' W 081°09'0 0.0
2018-Jul-08 17:53N 32°08' W 081°09'0 0.0
2018-Jul-08 17:27N 32°08' W 081°09'0 0.0
2018-Jul-08 16:58N 32°08' W 081°09'0 0.0
2018-Jul-08 16:28N 32°08' W 081°09'0 0.0
2018-Jul-08 16:00N 32°08' W 081°09'1 1.6
2018-Jul-08 15:30N 32°08' W 081°08'2 4.5
2018-Jul-08 15:00N 32°06' W 081°07'2 3.6
2018-Jul-08 14:30N 32°05' W 081°05'3 5.4
2018-Jul-08 14:00N 32°05' W 081°02'4 8.3
2018-Jul-08 13:30N 32°04' W 080°57'4 8.3
2018-Jul-08 13:00N 32°02' W 080°52'510.2
2018-Jul-08 12:31N 31°60' W 080°47'612.3
2018-Jul-08 12:00N 31°57' W 080°41'4 8.8
2018-Jul-08 11:30N 31°57' W 080°35'5 9.7
2018-Jul-08 11:00N 31°57' W 080°30'612.3
2018-Jul-08 10:30N 31°58' W 080°22'  
Track history (hours):
 
Tides and Currents Weather Stations Pressure Air Temp Water Temp Dewpoint Dewpoint Depression Visibility Wind Speed Wind Dir Waves Ship Positions

OOCL Asia

Last reported at 2018-Jul-18 06:00 UTC. Time now 2018-Jul-18 23:53 UTC.
Position N 49°42' W 019°12'.

Length 323 m; beam 42.8 m; draft 14.5 m.

Type: Cargo ship. MMSI: 477105600.

Wind from 010 at 8 knots

Barometer 1020.0 mb
Air temperature 11.0 ° C
Visibility: greater than 0.3 NM
Dewpoint 7.2 ° C
Water temperature 8.0 ° C

Date/timePositionNaut miles runAvg speedWind from/ knotsBaromVisibWave heightAir tempDewpointWater temp
2018-Jul-18 06:00N 49°42' W 019°12'25914.4 010 / 81020.0 0.3 11.0 7.2 8.0
2018-Jul-17 12:00N 49°12' W 025°48'10817.9 210 / 131017.0 0.3 20.016.9-17.4
2018-Jul-17 06:00N 48°54' W 028°30'38916.2 280 / 91017.5 0.5 18.014.814.0
2018-Jul-16 06:00N 47°18' W 037°54'36120.1 1026.0 5.4 18.014.814.0
2018-Jul-15 12:00N 45°06' W 046°00'24220.1 240 / 161027.0 0.0 16.515.714.9
2018-Jul-15 00:00N 43°24' W 051°06'23019.1 120 / 81022.0 0.5 19.017.516.8
2018-Jul-14 12:00N 41°30' W 055°36'61120.4 230 / 211025.010.8 26.021.828.7
2018-Jul-13 06:00N 36°00' W 066°36'17214.3 240 / 191020.510.8 22.019.0
2018-Jul-12 18:00N 34°24' W 069°30'20312.4 240 / 81020.510.8 27.521.127.5
2018-Jul-12 01:36N 32°44' W 073°03'1 8.3
2018-Jul-12 01:30N 32°44' W 073°04'4 8.4
2018-Jul-12 01:00N 32°44' W 073°08'4 8.4
2018-Jul-12 00:30N 32°43' W 073°13'332 9.6
2018-Jul-10 13:45N 32°43' W 079°49'415.9
2018-Jul-10 13:30N 32°46' W 079°52'4 8.1
2018-Jul-10 13:00N 32°49' W 079°54'1 2.3
2018-Jul-10 12:29N 32°50' W 079°53'0 0.1
2018-Jul-10 11:55N 32°50' W 079°53'0 0.0
2018-Jul-10 11:28N 32°50' W 079°53'0 0.0
2018-Jul-10 10:59N 32°50' W 079°53'0 0.0
2018-Jul-10 10:29N 32°50' W 079°53'0 0.0
2018-Jul-10 09:59N 32°50' W 079°53'0 0.0
2018-Jul-10 09:26N 32°50' W 079°53'0 0.0
2018-Jul-10 08:53N 32°50' W 079°53'0 0.0
2018-Jul-10 08:17N 32°50' W 079°53'0 0.0
2018-Jul-10 07:56N 32°50' W 079°53'0 0.0
2018-Jul-10 07:20N 32°50' W 079°53'0 0.0
2018-Jul-10 06:56N 32°50' W 079°53'0 0.0
2018-Jul-10 06:26N 32°50' W 079°53'0 0.0
2018-Jul-10 05:32N 32°50' W 079°53'0 0.0
2018-Jul-10 05:29N 32°50' W 079°53'0 0.0
2018-Jul-10 04:59N 32°50' W 079°53'0 0.0
2018-Jul-10 04:20N 32°50' W 079°53'0 0.0
2018-Jul-10 03:56N 32°50' W 079°53'0 0.0
2018-Jul-10 03:26N 32°50' W 079°53'0 0.0
2018-Jul-10 02:50N 32°50' W 079°53'0 0.0
2018-Jul-10 02:29N 32°50' W 079°53'0 0.0
2018-Jul-10 00:53N 32°50' W 079°53'0 0.0
2018-Jul-10 00:20N 32°50' W 079°53'0 0.0
2018-Jul-09 23:56N 32°50' W 079°53'0 0.0
2018-Jul-09 21:02N 32°50' W 079°53'0 0.0
2018-Jul-09 20:53N 32°50' W 079°53'0 0.0
2018-Jul-09 19:59N 32°50' W 079°53'0 0.0
2018-Jul-09 18:30N 32°50' W 079°53'0 0.0
2018-Jul-09 15:11N 32°50' W 079°53'1 3.4
2018-Jul-09 14:59N 32°50' W 079°54'3 6.5
2018-Jul-09 14:30N 32°47' W 079°54'611.4
2018-Jul-09 14:01N 32°43' W 079°48'5912.3
2018-Jul-09 09:11N 31°57' W 080°32'319.5
2018-Jul-09 09:00N 31°57' W 080°36'815.1
2018-Jul-09 08:30N 31°59' W 080°45'713.5
2018-Jul-09 08:00N 32°02' W 080°51'4 9.0
2018-Jul-09 07:31N 32°03' W 080°56'5 9.1
2018-Jul-09 07:00N 32°06' W 081°01'3 6.6
2018-Jul-09 06:29N 32°05' W 081°05'3 6.4
2018-Jul-09 06:00N 32°07' W 081°08'1 3.0
2018-Jul-09 05:30N 32°08' W 081°09'0 0.0
2018-Jul-09 04:58N 32°08' W 081°09'0 0.0
2018-Jul-09 04:28N 32°08' W 081°09'0 0.0
2018-Jul-09 03:58N 32°08' W 081°09'0 0.0
2018-Jul-09 03:28N 32°08' W 081°09'0 0.0
2018-Jul-09 02:58N 32°08' W 081°09'0 0.0
2018-Jul-09 02:28N 32°08' W 081°09'0 0.0
2018-Jul-09 01:58N 32°08' W 081°09'0 0.0
2018-Jul-09 01:29N 32°08' W 081°09'0 0.0
2018-Jul-09 01:00N 32°08' W 081°09'0 0.0
2018-Jul-09 00:30N 32°08' W 081°09'0 0.0
2018-Jul-09 00:00N 32°08' W 081°09'0 0.0
2018-Jul-08 23:30N 32°08' W 081°09'0 0.0
2018-Jul-08 23:00N 32°08' W 081°09'0 0.0
2018-Jul-08 22:30N 32°08' W 081°09'0 0.0
2018-Jul-08 21:54N 32°08' W 081°09'0 0.0
2018-Jul-08 21:24N 32°08' W 081°09'0 0.0
2018-Jul-08 21:00N 32°08' W 081°09'0 0.0
2018-Jul-08 20:30N 32°08' W 081°09'0 0.0
2018-Jul-08 20:00N 32°08' W 081°09'0 0.0
2018-Jul-08 19:30N 32°08' W 081°09'0 0.0
2018-Jul-08 19:00N 32°08' W 081°09'0 0.0
2018-Jul-08 18:30N 32°08' W 081°09'0 0.0
2018-Jul-08 17:53N 32°08' W 081°09'0 0.0
2018-Jul-08 17:27N 32°08' W 081°09'0 0.0
2018-Jul-08 16:58N 32°08' W 081°09'0 0.0
2018-Jul-08 16:28N 32°08' W 081°09'0 0.0
2018-Jul-08 16:00N 32°08' W 081°09'1 1.6
2018-Jul-08 15:30N 32°08' W 081°08'2 4.5
2018-Jul-08 15:00N 32°06' W 081°07'2 3.6
2018-Jul-08 14:30N 32°05' W 081°05'3 5.4
2018-Jul-08 14:00N 32°05' W 081°02'4 8.3
2018-Jul-08 13:30N 32°04' W 080°57'4 8.3
2018-Jul-08 13:00N 32°02' W 080°52'510.2
2018-Jul-08 12:31N 31°60' W 080°47'612.3
2018-Jul-08 12:00N 31°57' W 080°41'4 8.8
2018-Jul-08 11:30N 31°57' W 080°35'5 9.7
2018-Jul-08 11:00N 31°57' W 080°30'612.3
2018-Jul-08 10:30N 31°58' W 080°22'  

Dump ship's entire track history